Time;durP1;ratioP1;P1;durP2;ratioP2;P2;SDS_P1;SDS_P2;PMS_P1;PMS_P2;Temp;Humidity;BMP_temperature;BMP_pressure;BME280_temperature;BME280_humidity;BME280_pressure;Samples;Min_cycle;Max_cycle;Signal;HPM_P1;HPM_P2
2022/07/21 00:01:34;;;;;;;2.03;1.20;;;13.40;59.60;;;;;;5030792;28;20219;-44
2022/07/21 00:04:05;;;;;;;2.72;1.23;;;13.40;59.60;;;;;;5030911;28;20555;-52
2022/07/21 00:06:35;;;;;;;3.92;1.30;;;13.40;59.60;;;;;;5031322;28;20874;-45
2022/07/21 00:09:08;;;;;;;2.47;1.20;;;13.40;59.60;;;;;;5031007;28;20199;-46
2022/07/21 00:11:39;;;;;;;2.20;1.20;;;13.40;60.20;;;;;;5031116;28;20222;-51
2022/07/21 00:14:11;;;;;;;2.95;1.13;;;13.40;59.60;;;;;;5031910;28;20205;-45
2022/07/21 00:16:43;;;;;;;3.05;1.30;;;13.40;59.60;;;;;;5030833;28;20204;-44
2022/07/21 00:19:13;;;;;;;3.30;1.25;;;13.40;59.50;;;;;;5030999;28;20196;-44
2022/07/21 00:21:44;;;;;;;1.73;1.08;;;13.40;59.50;;;;;;5029850;28;20226;-44
2022/07/21 00:24:17;;;;;;;2.00;1.10;;;13.40;59.50;;;;;;5030537;28;20211;-48
2022/07/21 00:26:47;;;;;;;2.08;1.25;;;13.40;59.50;;;;;;5030636;28;20204;-45
2022/07/21 00:29:18;;;;;;;2.67;1.20;;;13.40;59.70;;;;;;5031049;28;20211;-44
2022/07/21 00:31:49;;;;;;;2.50;1.15;;;13.40;59.70;;;;;;5030360;28;20226;-44
2022/07/21 00:34:19;;;;;;;2.22;1.15;;;13.40;59.70;;;;;;5030847;28;20206;-45
2022/07/21 00:36:50;;;;;;;3.45;1.33;;;13.40;59.70;;;;;;5030338;28;20199;-45
2022/07/21 00:39:23;;;;;;;3.08;1.10;;;13.40;59.80;;;;;;5029343;28;20199;-44
2022/07/21 00:41:53;;;;;;;3.80;1.10;;;13.50;59.90;;;;;;5030632;28;20932;-46
2022/07/21 00:44:25;;;;;;;3.03;1.00;;;13.50;60.00;;;;;;5029852;28;20644;-45
2022/07/21 00:46:56;;;;;;;3.65;1.33;;;13.50;60.00;;;;;;5030901;28;20196;-45
2022/07/21 00:49:27;;;;;;;2.90;1.02;;;13.50;60.00;;;;;;5030134;28;20192;-45
2022/07/21 00:51:58;;;;;;;2.25;0.85;;;13.50;59.90;;;;;;5030528;28;20204;-50
2022/07/21 00:54:31;;;;;;;2.05;1.30;;;13.50;59.90;;;;;;5030108;28;20656;-54
2022/07/21 00:57:01;;;;;;;2.83;1.20;;;13.50;59.80;;;;;;5030667;28;20192;-44
2022/07/21 00:59:33;;;;;;;3.30;1.13;;;13.50;60.20;;;;;;5029471;28;20200;-50
2022/07/21 01:02:04;;;;;;;5.32;1.35;;;13.50;60.60;;;;;;5030409;28;20605;-44
2022/07/21 01:04:34;;;;;;;2.60;1.13;;;13.60;60.80;;;;;;5030661;28;20588;-44
2022/07/21 01:07:06;;;;;;;5.88;1.23;;;13.60;61.00;;;;;;5029610;28;20200;-46
2022/07/21 01:09:39;;;;;;;2.67;1.10;;;13.60;61.20;;;;;;5029667;28;20192;-44
2022/07/21 01:12:11;;;;;;;2.97;0.93;;;13.60;61.40;;;;;;5024686;28;20219;-45
2022/07/21 01:14:42;;;;;;;1.90;1.10;;;13.60;61.50;;;;;;5025902;28;20196;-54
2022/07/21 01:17:13;;;;;;;5.57;1.48;;;13.60;61.70;;;;;;5029464;28;20192;-49
2022/07/21 01:19:43;;;;;;;6.47;2.33;;;13.60;61.70;;;;;;5030544;28;20196;-44
2022/07/21 01:22:16;;;;;;;4.22;2.10;;;13.60;61.80;;;;;;5029718;28;20224;-45
2022/07/21 01:24:47;;;;;;;3.10;1.67;;;13.60;62.00;;;;;;5030325;28;20203;-46
2022/07/21 01:27:17;;;;;;;3.17;1.60;;;13.70;62.00;;;;;;5030510;28;20207;-46
2022/07/21 01:29:48;;;;;;;5.80;1.95;;;13.70;61.90;;;;;;5030029;28;20192;-45
2022/07/21 01:32:19;;;;;;;4.03;1.63;;;13.70;61.80;;;;;;5030464;28;20676;-45
2022/07/21 01:34:50;;;;;;;3.58;1.70;;;13.70;61.70;;;;;;5029270;28;20645;-50
2022/07/21 01:37:29;;;;;;;5.28;2.55;;;13.70;61.70;;;;;;5030351;28;20589;-47
2022/07/21 01:42:47;;;;;;;5.22;1.85;;;13.70;61.60;;;;;;5032617;28;20227;-52
2022/07/21 01:45:17;;;;;;;3.78;1.90;;;13.70;61.40;;;;;;5033336;28;20208;-53
2022/07/21 01:47:48;;;;;;;3.55;2.00;;;13.70;61.40;;;;;;5033485;28;20192;-55
2022/07/21 01:50:21;;;;;;;3.95;1.60;;;13.70;61.40;;;;;;5016580;28;20220;-43
2022/07/21 01:52:53;;;;;;;4.20;2.17;;;13.70;61.40;;;;;;5016587;28;20272;-51
2022/07/21 01:55:24;;;;;;;6.30;2.78;;;13.70;61.40;;;;;;5033915;28;20196;-43
2022/07/21 01:57:55;;;;;;;3.22;2.28;;;13.70;61.50;;;;;;5033524;28;20207;-48
2022/07/21 02:00:26;;;;;;;6.65;3.40;;;13.80;61.90;;;;;;5013994;28;20236;-48
2022/07/21 02:02:57;;;;;;;7.15;3.08;;;13.70;62.10;;;;;;5012931;28;20229;-50
2022/07/21 02:05:27;;;;;;;3.95;1.70;;;13.80;62.60;;;;;;5032224;28;20357;-48
2022/07/21 02:08:00;;;;;;;4.25;1.30;;;13.80;61.70;;;;;;5032702;28;20196;-52
2022/07/21 02:10:31;;;;;;;4.35;1.35;;;13.80;60.60;;;;;;5013138;28;20220;-57
2022/07/21 02:13:02;;;;;;;1.63;0.80;;;13.80;60.00;;;;;;5013832;28;20208;-53
2022/07/21 02:15:33;;;;;;;2.03;0.90;;;13.80;59.80;;;;;;5032854;28;20588;-51
2022/07/21 02:18:04;;;;;;;2.53;1.17;;;13.80;59.70;;;;;;5033085;28;20207;-46
2022/07/21 02:20:35;;;;;;;1.88;0.90;;;13.80;59.70;;;;;;5032960;28;20577;-56
2022/07/21 02:23:07;;;;;;;3.10;1.58;;;13.80;59.80;;;;;;5032859;28;20228;-46
2022/07/21 02:25:38;;;;;;;7.78;3.30;;;13.80;59.80;;;;;;5013918;28;20557;-58
2022/07/21 02:28:09;;;;;;;6.60;2.90;;;13.80;62.40;;;;;;5013098;28;20201;-56
2022/07/21 02:30:39;;;;;;;3.25;2.45;;;13.80;65.60;;;;;;5013513;28;20213;-50
2022/07/21 02:33:10;;;;;;;3.08;2.70;;;13.90;63.20;;;;;;5012575;28;20196;-47
2022/07/21 02:35:41;;;;;;;3.42;3.08;;;13.90;61.50;;;;;;5020418;28;20679;-50
2022/07/21 02:38:14;;;;;;;4.40;2.30;;;13.90;60.60;;;;;;5032963;28;20207;-48
2022/07/21 02:40:44;;;;;;;2.75;2.30;;;13.90;60.00;;;;;;5029560;28;20219;-52
2022/07/21 02:43:15;;;;;;;3.75;1.98;;;13.80;59.70;;;;;;5033062;28;20307;-46
2022/07/21 02:45:46;;;;;;;4.97;2.53;;;13.80;59.50;;;;;;5032774;28;20207;-47
2022/07/21 02:48:17;;;;;;;3.03;1.70;;;13.80;59.50;;;;;;5033224;28;20560;-58
2022/07/21 02:50:48;;;;;;;4.53;1.45;;;13.80;59.30;;;;;;5017010;28;20227;-45
2022/07/21 02:53:23;;;;;;;2.47;0.90;;;13.80;59.20;;;;;;5031075;28;20200;-49
2022/07/21 02:55:54;;;;;;;6.15;1.40;;;13.80;59.10;;;;;;5012526;28;20196;-54
2022/07/21 02:58:26;;;;;;;19.52;7.15;;;13.80;59.20;;;;;;5012702;28;20205;-45
2022/07/21 03:01:00;;;;;;;17.88;6.07;;;13.80;65.60;;;;;;5013235;28;20594;-45
2022/07/21 03:03:32;;;;;;;4.57;2.60;;;14.00;68.70;;;;;;5012541;28;20224;-54
2022/07/21 03:06:03;;;;;;;2.70;1.50;;;14.10;66.00;;;;;;5032276;28;20200;-53
2022/07/21 03:08:36;;;;;;;3.63;1.58;;;14.10;62.90;;;;;;5031197;28;20203;-54
2022/07/21 03:11:07;;;;;;;2.28;1.20;;;14.10;61.00;;;;;;5032332;28;20212;-51
2022/07/21 03:13:38;;;;;;;1.10;1.00;;;14.10;60.10;;;;;;5033123;28;20222;-56
2022/07/21 03:16:08;;;;;;;2.40;1.00;;;14.10;59.30;;;;;;5032194;28;20192;-55
2022/07/21 03:18:39;;;;;;;3.10;1.17;;;14.10;59.00;;;;;;5031468;28;20200;-46
2022/07/21 03:21:10;;;;;;;2.85;1.20;;;14.00;58.60;;;;;;5031126;28;20772;-49
2022/07/21 03:23:45;;;;;;;2.45;1.38;;;13.90;58.40;;;;;;5031931;28;20227;-53
2022/07/21 03:26:16;;;;;;;2.65;1.05;;;13.90;58.30;;;;;;5031912;28;20195;-54
2022/07/21 03:28:47;;;;;;;1.65;1.45;;;13.90;58.20;;;;;;5030941;28;20726;-55
2022/07/21 03:31:18;;;;;;;3.72;1.15;;;13.80;58.20;;;;;;5031345;28;20227;-47
2022/07/21 03:33:48;;;;;;;1.50;1.00;;;13.80;58.10;;;;;;5031673;28;20192;-47
2022/07/21 03:36:19;;;;;;;2.83;1.08;;;13.80;58.00;;;;;;5032037;28;20204;-52
2022/07/21 03:38:52;;;;;;;2.95;1.10;;;13.80;58.00;;;;;;5031839;28;20602;-55
2022/07/21 03:41:22;;;;;;;5.57;1.42;;;13.80;58.00;;;;;;5014082;28;20217;-50
2022/07/21 03:43:53;;;;;;;1.58;1.00;;;13.70;57.90;;;;;;5013601;28;20240;-59
2022/07/21 03:46:24;;;;;;;2.30;1.38;;;13.70;58.00;;;;;;5031139;28;20208;-57
2022/07/21 03:48:55;;;;;;;1.77;1.38;;;13.70;58.00;;;;;;5031976;28;20203;-58
2022/07/21 03:51:26;;;;;;;2.15;1.10;;;13.70;57.70;;;;;;5031409;28;20224;-57
2022/07/21 03:53:59;;;;;;;2.78;1.50;;;13.70;57.60;;;;;;5030999;28;20210;-51
2022/07/21 03:56:29;;;;;;;2.90;1.30;;;13.60;57.40;;;;;;5031083;28;20208;-53
2022/07/21 03:59:00;;;;;;;2.13;1.13;;;13.60;57.40;;;;;;5030665;28;20215;-58
2022/07/21 04:01:31;;;;;;;2.40;1.40;;;13.60;57.30;;;;;;5031495;28;20216;-53
2022/07/21 04:04:01;;;;;;;2.28;1.23;;;13.60;57.30;;;;;;5016040;28;20240;-56
2022/07/21 04:06:33;;;;;;;5.57;1.70;;;13.60;57.20;;;;;;5031566;28;20192;-50
2022/07/21 04:09:06;;;;;;;1.98;1.02;;;13.60;57.20;;;;;;5031367;28;20833;-50
2022/07/21 04:11:36;;;;;;;3.47;1.58;;;13.50;57.10;;;;;;5030965;28;20230;-56
2022/07/21 04:14:07;;;;;;;3.70;1.50;;;13.50;57.00;;;;;;5031164;28;20199;-58
2022/07/21 04:16:37;;;;;;;4.53;1.60;;;13.50;56.90;;;;;;5030748;28;20204;-59
2022/07/21 04:19:08;;;;;;;3.45;2.00;;;13.50;56.80;;;;;;5030894;28;20199;-53
2022/07/21 04:21:39;;;;;;;2.42;1.30;;;13.50;56.70;;;;;;5030290;28;20224;-47
2022/07/21 04:24:12;;;;;;;4.15;1.02;;;13.40;56.40;;;;;;5029835;28;20592;-50
2022/07/21 04:26:42;;;;;;;2.50;1.30;;;13.40;56.30;;;;;;5030660;28;20653;-48
2022/07/21 04:29:13;;;;;;;2.95;1.20;;;13.40;56.50;;;;;;5030746;28;20577;-45
2022/07/21 04:31:44;;;;;;;2.10;1.02;;;13.40;56.30;;;;;;5031337;28;20227;-49
2022/07/21 04:34:14;;;;;;;3.38;0.88;;;13.30;56.10;;;;;;5030332;28;20212;-46
2022/07/21 04:36:45;;;;;;;2.25;1.00;;;13.30;55.90;;;;;;5030050;28;20196;-46
2022/07/21 04:39:18;;;;;;;3.78;0.90;;;13.20;55.70;;;;;;5030542;28;20667;-49
2022/07/21 04:41:49;;;;;;;1.23;0.90;;;13.10;55.50;;;;;;5030565;28;20212;-45
2022/07/21 04:44:19;;;;;;;1.75;1.08;;;13.00;55.50;;;;;;5029627;28;20596;-44
2022/07/21 04:46:50;;;;;;;1.83;1.10;;;13.00;55.60;;;;;;5029938;28;20801;-47
2022/07/21 04:49:21;;;;;;;1.33;1.17;;;12.90;55.40;;;;;;5030452;28;20200;-47
2022/07/21 04:51:52;;;;;;;1.80;1.65;;;12.90;55.40;;;;;;5029600;28;20224;-52
2022/07/21 04:54:24;;;;;;;2.67;1.60;;;12.80;55.40;;;;;;5029853;28;20192;-50
2022/07/21 04:56:55;;;;;;;3.20;2.15;;;12.80;55.40;;;;;;5030116;28;20200;-46
2022/07/21 04:59:26;;;;;;;3.67;2.10;;;12.70;55.40;;;;;;5029252;28;20192;-47
2022/07/21 05:01:56;;;;;;;2.58;1.40;;;12.70;55.40;;;;;;5030444;28;20623;-48
2022/07/21 05:04:27;;;;;;;1.73;1.63;;;12.60;55.30;;;;;;5029841;28;20227;-49
2022/07/21 05:06:58;;;;;;;2.38;1.55;;;12.50;55.40;;;;;;5030694;28;20223;-44
2022/07/21 05:09:31;;;;;;;3.95;2.88;;;12.50;55.50;;;;;;5030370;28;20200;-46
2022/07/21 05:12:02;;;;;;;4.15;2.40;;;12.40;55.40;;;;;;5030701;28;20215;-46
2022/07/21 05:14:32;;;;;;;2.50;2.22;;;12.40;55.30;;;;;;5031077;28;20674;-44
2022/07/21 05:17:03;;;;;;;2.45;1.92;;;12.30;55.40;;;;;;5031575;28;20200;-50
2022/07/21 05:19:34;;;;;;;11.10;6.68;;;12.30;55.60;;;;;;5033585;28;20215;-53
2022/07/21 05:22:04;;;;;;;17.75;10.98;;;12.20;55.70;;;;;;5032887;28;20192;-48
2022/07/21 05:24:37;;;;;;;31.08;16.90;;;12.20;55.70;;;;;;5033576;28;20222;-45
2022/07/21 05:27:08;;;;;;;34.47;16.88;;;12.20;55.90;;;;;;5033503;28;20397;-51
2022/07/21 05:29:38;;;;;;;23.58;13.25;;;12.20;56.00;;;;;;5033374;28;20200;-50
2022/07/21 05:32:09;;;;;;;27.85;17.13;;;12.10;56.00;;;;;;5034353;28;20595;-50
2022/07/21 05:34:40;;;;;;;25.88;17.65;;;12.20;56.20;;;;;;5033505;28;20216;-52
2022/07/21 05:37:11;;;;;;;30.73;20.05;;;12.10;56.00;;;;;;5033759;28;20211;-50
2022/07/21 05:39:43;;;;;;;21.17;14.68;;;12.10;56.00;;;;;;5032569;28;20192;-53
2022/07/21 05:42:14;;;;;;;21.08;12.98;;;12.10;56.00;;;;;;5033597;28;20196;-51
2022/07/21 05:44:45;;;;;;;26.27;17.90;;;12.10;56.10;;;;;;5033982;28;20596;-49
2022/07/21 05:47:15;;;;;;;21.55;17.35;;;12.00;56.20;;;;;;5026185;28;20208;-50
2022/07/21 05:49:46;;;;;;;18.67;13.80;;;12.00;56.20;;;;;;5015783;28;20197;-44
2022/07/21 05:52:17;;;;;;;16.00;12.02;;;11.90;56.30;;;;;;5033318;28;20208;-45
2022/07/21 05:54:49;;;;;;;9.00;7.38;;;12.00;56.40;;;;;;5033691;28;20200;-46
2022/07/21 05:57:20;;;;;;;5.55;3.67;;;11.90;56.50;;;;;;5033442;28;20196;-50
2022/07/21 05:59:51;;;;;;;4.90;3.20;;;11.90;56.50;;;;;;5033272;28;20571;-48
2022/07/21 06:02:22;;;;;;;3.85;3.05;;;11.90;56.60;;;;;;5033531;28;20206;-50
2022/07/21 06:04:53;;;;;;;4.05;3.60;;;11.90;56.80;;;;;;5032653;28;20235;-50
2022/07/21 06:07:23;;;;;;;6.75;3.60;;;11.90;56.80;;;;;;5033201;28;20584;-49
2022/07/21 06:09:56;;;;;;;3.33;2.60;;;11.90;56.90;;;;;;5032780;28;20223;-46
2022/07/21 06:12:27;;;;;;;6.45;4.20;;;11.90;56.80;;;;;;5015979;28;20193;-52
2022/07/21 06:14:57;;;;;;;6.75;3.63;;;11.90;56.90;;;;;;5015862;28;20219;-49
2022/07/21 06:17:31;;;;;;;8.32;5.82;;;11.90;56.90;;;;;;5033117;28;20204;-47
2022/07/21 06:20:01;;;;;;;6.38;4.15;;;11.80;56.80;;;;;;5033281;28;20220;-49
2022/07/21 06:22:32;;;;;;;5.47;4.38;;;11.80;56.80;;;;;;5032819;28;20212;-49
2022/07/21 06:25:05;;;;;;;4.47;3.25;;;11.80;56.90;;;;;;5032465;28;20695;-51
2022/07/21 06:27:35;;;;;;;5.43;3.28;;;11.80;56.90;;;;;;5032508;28;20711;-46
2022/07/21 06:30:07;;;;;;;3.85;3.47;;;11.80;56.90;;;;;;5032452;28;20212;-46
2022/07/21 06:32:38;;;;;;;4.13;3.13;;;11.80;57.00;;;;;;5033143;28;20211;-45
2022/07/21 06:35:10;;;;;;;3.45;3.15;;;11.70;57.00;;;;;;5032446;28;20200;-54
2022/07/21 06:37:40;;;;;;;4.40;3.17;;;11.70;57.10;;;;;;5033171;28;20674;-50
2022/07/21 06:40:15;;;;;;;3.60;3.13;;;11.80;57.30;;;;;;5032138;28;20212;-54
2022/07/21 06:42:45;;;;;;;3.80;3.38;;;11.80;57.40;;;;;;5032889;28;20195;-53
2022/07/21 06:45:16;;;;;;;3.63;3.13;;;11.80;57.50;;;;;;5031709;28;21145;-53
2022/07/21 06:47:47;;;;;;;4.20;3.53;;;11.80;57.50;;;;;;5032370;28;20668;-45
2022/07/21 06:50:18;;;;;;;3.22;2.92;;;11.90;57.60;;;;;;5032548;28;20227;-52
2022/07/21 06:52:49;;;;;;;3.55;3.00;;;11.90;57.60;;;;;;5032521;28;20204;-48
2022/07/21 06:55:21;;;;;;;3.17;2.75;;;11.90;57.60;;;;;;5033192;28;20251;-52
2022/07/21 06:57:52;;;;;;;3.83;3.03;;;11.90;57.70;;;;;;5032547;28;20200;-47
2022/07/21 07:00:23;;;;;;;3.15;2.85;;;12.00;57.70;;;;;;5032965;28;20216;-51
2022/07/21 07:02:54;;;;;;;4.10;2.80;;;12.00;57.80;;;;;;5032744;28;20200;-52
2022/07/21 07:05:27;;;;;;;3.50;2.85;;;12.10;57.80;;;;;;5031760;28;20234;-51
2022/07/21 07:07:58;;;;;;;2.60;2.38;;;12.10;57.80;;;;;;5032701;28;20662;-52
2022/07/21 07:10:31;;;;;;;3.28;2.50;;;12.00;57.80;;;;;;5031995;28;20204;-49
2022/07/21 07:13:02;;;;;;;2.10;2.00;;;12.10;57.90;;;;;;5032868;28;20200;-47
2022/07/21 07:15:33;;;;;;;2.70;2.50;;;12.10;57.90;;;;;;5030949;28;20612;-53
2022/07/21 07:18:03;;;;;;;2.50;2.30;;;12.10;57.90;;;;;;5032116;28;20200;-46
2022/07/21 07:20:34;;;;;;;2.47;2.20;;;12.20;58.00;;;;;;5032049;28;20315;-53
2022/07/21 07:23:05;;;;;;;2.78;2.30;;;12.20;58.00;;;;;;5031081;28;20275;-48
2022/07/21 07:25:38;;;;;;;2.88;2.30;;;12.20;57.90;;;;;;5032020;28;20302;-52
2022/07/21 07:28:08;;;;;;;2.72;2.53;;;12.20;57.90;;;;;;5031735;28;20211;-53
2022/07/21 07:30:39;;;;;;;3.15;2.25;;;12.20;57.90;;;;;;5032106;28;20711;-47
2022/07/21 07:33:10;;;;;;;3.15;2.30;;;12.20;57.90;;;;;;5032329;28;20591;-46
2022/07/21 07:35:41;;;;;;;2.60;2.03;;;12.30;58.00;;;;;;5032311;28;20196;-49
2022/07/21 07:38:16;;;;;;;2.42;2.17;;;12.30;58.00;;;;;;5032201;28;20208;-52
2022/07/21 07:40:49;;;;;;;2.55;2.22;;;12.30;58.00;;;;;;5031729;28;20220;-50
2022/07/21 07:43:19;;;;;;;2.25;2.05;;;12.30;58.00;;;;;;5032182;28;20195;-52
2022/07/21 07:45:50;;;;;;;3.35;2.50;;;12.40;58.10;;;;;;5031882;28;20223;-50
2022/07/21 07:48:21;;;;;;;2.33;2.13;;;12.40;58.10;;;;;;5032092;28;20200;-50
2022/07/21 07:50:51;;;;;;;2.40;2.20;;;12.40;58.10;;;;;;5031775;28;20231;-45
2022/07/21 07:53:22;;;;;;;2.05;1.85;;;12.40;58.10;;;;;;5031425;28;20339;-49
2022/07/21 07:55:55;;;;;;;2.50;2.30;;;12.40;58.20;;;;;;5019511;28;20203;-46
2022/07/21 07:58:25;;;;;;;2.50;2.30;;;12.40;58.20;;;;;;5010777;28;20192;-47
2022/07/21 08:00:56;;;;;;;2.30;2.10;;;12.40;58.30;;;;;;5025894;28;20216;-48
2022/07/21 08:03:28;;;;;;;3.72;2.40;;;12.40;58.30;;;;;;5031327;28;20192;-47
2022/07/21 08:06:03;;;;;;;2.45;2.25;;;12.40;58.30;;;;;;5031797;28;20224;-44
2022/07/21 08:08:34;;;;;;;2.67;2.47;;;12.40;58.30;;;;;;5032032;28;20718;-46
2022/07/21 08:11:06;;;;;;;4.05;2.40;;;12.40;58.30;;;;;;5031565;28;20223;-43
2022/07/21 08:13:37;;;;;;;3.25;2.50;;;12.40;58.40;;;;;;5031739;28;20195;-45
2022/07/21 08:16:08;;;;;;;3.10;2.55;;;12.50;58.40;;;;;;5031111;28;20196;-46
2022/07/21 08:18:39;;;;;;;2.55;2.15;;;12.40;58.40;;;;;;5031199;28;20203;-45
2022/07/21 08:21:10;;;;;;;2.80;2.53;;;12.50;58.50;;;;;;5027769;28;20220;-47
2022/07/21 08:23:41;;;;;;;2.85;2.55;;;12.50;58.50;;;;;;5031258;28;20657;-46
2022/07/21 08:26:13;;;;;;;2.95;2.53;;;12.50;58.60;;;;;;5030840;28;20251;-45
2022/07/21 08:28:44;;;;;;;3.55;3.03;;;12.50;58.60;;;;;;5031570;28;20211;-51
2022/07/21 08:31:15;;;;;;;3.25;2.70;;;12.50;58.70;;;;;;5030806;28;20692;-46
2022/07/21 08:33:45;;;;;;;3.13;2.78;;;12.50;58.70;;;;;;5031378;28;20192;-44
2022/07/21 08:36:16;;;;;;;2.47;2.28;;;12.50;58.70;;;;;;5031183;28;20206;-49
2022/07/21 08:38:47;;;;;;;2.42;2.22;;;12.50;58.70;;;;;;5030847;28;20215;-43
2022/07/21 08:41:20;;;;;;;3.20;2.05;;;12.50;58.60;;;;;;5030473;28;20219;-48
2022/07/21 08:43:52;;;;;;;3.33;2.33;;;12.50;58.70;;;;;;5030988;28;20203;-47
2022/07/21 08:46:25;;;;;;;3.58;2.47;;;12.50;58.60;;;;;;5030585;28;20231;-48
2022/07/21 08:48:57;;;;;;;3.42;2.42;;;12.50;58.60;;;;;;5030713;28;20204;-46
2022/07/21 08:51:28;;;;;;;3.03;2.47;;;12.50;58.60;;;;;;5029404;28;20239;-48
2022/07/21 08:53:58;;;;;;;4.10;2.63;;;12.50;58.60;;;;;;5030506;28;20196;-49
2022/07/21 08:56:31;;;;;;;4.53;3.28;;;12.50;58.60;;;;;;5030333;28;20680;-51
2022/07/21 08:59:02;;;;;;;4.35;3.65;;;12.50;58.60;;;;;;5030840;28;20676;-50
2022/07/21 09:01:33;;;;;;;5.97;4.22;;;12.50;58.60;;;;;;5030355;28;20573;-48
2022/07/21 09:04:23;;;;;;;7.97;5.63;;;12.50;58.60;;;;;;5030487;28;20223;-47
2022/07/21 09:06:58;;;;;;;7.95;6.70;;;12.50;58.60;;;;;;5030729;28;20204;-50
2022/07/21 09:09:30;;;;;;;10.32;7.63;;;12.50;58.60;;;;;;5030876;28;20212;-49
2022/07/21 09:12:05;;;;;;;11.02;8.65;;;12.50;58.60;;;;;;5030383;28;20203;-45
2022/07/21 09:14:37;;;;;;;12.60;9.27;;;12.50;58.60;;;;;;5029316;28;20196;-47
2022/07/21 09:17:08;;;;;;;12.23;9.45;;;12.50;58.50;;;;;;5029278;28;20200;-51
2022/07/21 09:19:41;;;;;;;12.02;8.88;;;12.50;58.50;;;;;;5030502;28;20204;-51
2022/07/21 09:22:18;;;;;;;11.15;8.43;;;12.50;58.50;;;;;;5030297;28;20291;-49
2022/07/21 09:24:53;;;;;;;11.40;7.93;;;12.50;58.50;;;;;;5030953;28;20223;-47
2022/07/21 09:27:27;;;;;;;12.38;8.43;;;12.50;58.50;;;;;;5027828;28;20196;-49
2022/07/21 09:30:01;;;;;;;8.52;7.22;;;12.50;58.40;;;;;;5030004;28;20222;-45
2022/07/21 09:32:32;;;;;;;10.13;7.60;;;12.50;58.40;;;;;;5030616;28;20192;-43
2022/07/21 09:35:05;;;;;;;10.43;8.00;;;12.50;58.30;;;;;;5030624;28;20199;-44
2022/07/21 09:37:36;;;;;;;9.98;7.30;;;12.50;58.40;;;;;;5030608;28;20656;-47
2022/07/21 09:40:09;;;;;;;7.20;6.40;;;12.60;58.70;;;;;;5023718;28;20212;-55
2022/07/21 09:42:43;;;;;;;9.35;7.00;;;12.60;58.70;;;;;;5023770;28;20192;-56
2022/07/21 09:45:16;;;;;;;11.27;7.25;;;12.50;58.70;;;;;;5030192;28;20224;-54
2022/07/21 09:47:48;;;;;;;10.43;7.15;;;12.50;58.60;;;;;;5011466;28;20259;-55
2022/07/21 09:50:20;;;;;;;9.27;6.97;;;12.50;58.50;;;;;;5020882;28;20236;-54
2022/07/21 09:52:50;;;;;;;9.63;7.30;;;12.50;58.40;;;;;;5011069;28;20205;-56
2022/07/21 09:55:21;;;;;;;9.07;6.68;;;12.50;58.40;;;;;;5021283;28;20184;-54
2022/07/21 09:57:54;;;;;;;9.85;7.03;;;12.50;58.20;;;;;;5014061;28;20192;-55
2022/07/21 10:00:24;;;;;;;8.70;6.70;;;12.50;58.20;;;;;;5023153;28;20716;-55
2022/07/21 10:02:56;;;;;;;9.32;6.75;;;12.50;58.10;;;;;;5011807;28;20201;-51
2022/07/21 10:05:27;;;;;;;9.00;6.53;;;12.50;58.00;;;;;;5024364;28;20220;-54
2022/07/21 10:07:58;;;;;;;9.38;6.25;;;12.50;58.00;;;;;;5033931;28;20239;-53
2022/07/21 10:10:29;;;;;;;9.07;6.57;;;12.50;57.80;;;;;;5032567;28;20707;-50
2022/07/21 10:13:02;;;;;;;8.45;6.07;;;12.50;57.80;;;;;;5034046;28;20696;-50
2022/07/21 10:15:32;;;;;;;8.90;6.05;;;12.50;57.80;;;;;;5033032;28;20199;-50
2022/07/21 10:18:05;;;;;;;7.10;5.00;;;12.50;57.80;;;;;;5033833;28;20656;-45
2022/07/21 10:20:39;;;;;;;6.97;4.68;;;12.50;57.80;;;;;;5033514;28;20219;-46
2022/07/21 10:23:18;;;;;;;5.32;4.18;;;12.50;57.80;;;;;;5030481;28;20211;-48
2022/07/21 10:25:50;;;;;;;5.60;3.97;;;12.50;57.80;;;;;;5033414;28;20310;-52
2022/07/21 10:28:24;;;;;;;5.55;3.78;;;12.50;58.70;;;;;;5031532;28;20189;-46
2022/07/21 10:30:56;;;;;;;4.95;3.72;;;12.50;59.90;;;;;;5026871;28;20247;-50
2022/07/21 10:33:56;;;;;;;4.82;3.60;;;12.60;60.00;;;;;;5033170;28;20201;-43
2022/07/21 10:36:49;;;;;;;4.10;3.13;;;12.60;59.60;;;;;;5031146;28;20279;-49
2022/07/21 10:39:27;;;;;;;3.33;2.65;;;12.60;59.20;;;;;;5033123;28;20196;-47
2022/07/21 10:42:02;;;;;;;5.82;3.70;;;12.60;58.80;;;;;;5033187;28;20216;-49
2022/07/21 10:44:49;;;;;;;3.83;2.88;;;12.60;58.60;;;;;;5033314;28;20286;-43
2022/07/21 10:47:21;;;;;;;3.70;2.78;;;12.60;58.40;;;;;;5033581;28;20199;-48
2022/07/21 10:49:54;;;;;;;3.80;3.00;;;12.60;58.20;;;;;;5032347;28;20275;-46
2022/07/21 10:53:01;;;;;;;5.13;3.45;;;12.60;58.10;;;;;;5032812;28;20204;-54
2022/07/21 10:55:34;;;;;;;4.07;3.05;;;12.50;57.90;;;;;;5033174;28;20188;-52
2022/07/21 10:58:16;;;;;;;3.50;3.05;;;12.50;57.80;;;;;;5032895;28;20195;-49
2022/07/21 11:00:56;;;;;;;5.43;3.00;;;12.50;57.70;;;;;;5033023;28;20216;-54
2022/07/21 11:03:29;;;;;;;3.58;2.80;;;12.50;57.60;;;;;;5012568;28;20196;-45
2022/07/21 11:06:23;;;;;;;3.88;2.95;;;12.50;57.50;;;;;;5032264;28;20691;-45
2022/07/21 11:08:55;;;;;;;5.00;3.55;;;12.50;57.50;;;;;;5032377;28;20196;-51
2022/07/21 11:11:27;;;;;;;4.43;3.22;;;12.40;57.40;;;;;;5032862;28;20889;-49
2022/07/21 11:14:11;;;;;;;5.45;3.78;;;12.40;57.30;;;;;;5032029;28;20196;-48
2022/07/21 11:17:26;;;;;;;4.43;3.28;;;12.40;57.20;;;;;;5019674;28;20203;-54
2022/07/21 11:19:57;;;;;;;4.55;3.30;;;12.40;57.10;;;;;;5015454;28;20275;-49
2022/07/21 11:22:29;;;;;;;4.47;3.22;;;12.40;57.00;;;;;;5031911;28;20226;-49
2022/07/21 11:25:01;;;;;;;4.47;2.78;;;12.40;56.90;;;;;;5032294;28;21021;-47
2022/07/21 11:27:33;;;;;;;3.20;2.55;;;12.40;56.90;;;;;;5032215;28;20203;-51
2022/07/21 11:30:06;;;;;;;3.45;2.65;;;12.40;56.90;;;;;;5032519;28;21537;-49
2022/07/21 11:32:39;;;;;;;3.03;2.30;;;12.30;56.80;;;;;;5032141;28;20246;-50
2022/07/21 11:35:11;;;;;;;2.60;2.28;;;12.40;56.80;;;;;;5032161;28;20223;-44
2022/07/21 11:37:43;;;;;;;3.13;2.30;;;12.30;56.80;;;;;;5032312;28;20211;-49
2022/07/21 11:40:19;;;;;;;3.80;2.50;;;12.30;56.70;;;;;;5031666;28;20219;-49
2022/07/21 11:42:53;;;;;;;4.10;3.05;;;12.30;57.30;;;;;;5032241;28;20203;-52
2022/07/21 11:45:28;;;;;;;3.95;2.92;;;12.30;56.70;;;;;;5031731;28;20196;-49
2022/07/21 11:48:00;;;;;;;4.00;3.05;;;12.30;56.70;;;;;;5032567;28;20360;-51
2022/07/21 11:50:31;;;;;;;4.13;3.05;;;12.30;56.70;;;;;;5032523;28;20717;-45
2022/07/21 11:53:03;;;;;;;3.72;3.40;;;12.30;56.60;;;;;;5020991;28;20219;-44
2022/07/21 11:55:34;;;;;;;4.00;3.50;;;12.30;56.60;;;;;;5010730;28;20289;-49
2022/07/21 11:58:05;;;;;;;3.92;3.15;;;12.30;56.60;;;;;;5017239;28;20200;-48
2022/07/21 12:00:35;;;;;;;3.53;3.00;;;12.30;56.60;;;;;;5030111;28;20224;-48
2022/07/21 12:03:12;;;;;;;3.10;2.80;;;12.20;56.50;;;;;;5029506;28;20215;-43
2022/07/21 12:05:44;;;;;;;3.55;3.05;;;12.20;56.50;;;;;;5029879;28;20310;-43
2022/07/21 12:08:15;;;;;;;3.38;2.80;;;12.30;56.60;;;;;;5030386;28;20196;-45
2022/07/21 12:10:46;;;;;;;4.20;2.78;;;12.20;56.50;;;;;;5030368;28;20243;-45
2022/07/21 12:13:17;;;;;;;3.78;3.00;;;12.20;56.40;;;;;;5030457;28;20192;-43
2022/07/21 12:15:47;;;;;;;3.38;2.17;;;12.20;56.40;;;;;;5030487;28;20204;-44
2022/07/21 12:18:25;;;;;;;2.83;2.53;;;12.20;56.40;;;;;;5030141;28;20563;-48
2022/07/21 12:21:06;;;;;;;2.97;2.55;;;12.20;56.40;;;;;;5027525;28;20220;-45
2022/07/21 12:23:37;;;;;;;2.75;1.90;;;12.20;56.40;;;;;;5030397;28;20254;-43
2022/07/21 12:26:08;;;;;;;1.70;1.60;;;12.20;56.40;;;;;;5028734;28;20235;-46
2022/07/21 12:28:49;;;;;;;4.63;2.10;;;12.20;56.40;;;;;;5030113;28;20200;-48
2022/07/21 12:31:21;;;;;;;2.42;2.00;;;12.20;56.40;;;;;;5030143;28;20223;-46
2022/07/21 12:33:55;;;;;;;3.20;1.80;;;12.10;56.30;;;;;;5029796;28;20200;-46
2022/07/21 12:36:28;;;;;;;1.90;1.67;;;12.10;56.30;;;;;;5030162;28;20195;-47
2022/07/21 12:38:58;;;;;;;3.75;2.75;;;12.10;56.20;;;;;;5030267;28;20207;-43
2022/07/21 12:41:29;;;;;;;2.17;1.95;;;12.10;56.30;;;;;;5030027;28;20774;-45
2022/07/21 12:44:01;;;;;;;2.40;2.20;;;12.10;56.20;;;;;;5030236;28;20254;-44
2022/07/21 12:46:33;;;;;;;2.08;1.88;;;12.10;56.20;;;;;;5029937;28;20228;-45
2022/07/21 12:49:10;;;;;;;1.90;1.60;;;12.10;56.10;;;;;;5029713;28;20195;-44
2022/07/21 12:51:41;;;;;;;1.80;1.60;;;12.10;56.20;;;;;;5029773;28;20271;-46
2022/07/21 12:54:12;;;;;;;4.03;1.73;;;12.10;56.10;;;;;;5029931;28;20566;-43
2022/07/21 12:56:43;;;;;;;1.95;1.60;;;12.10;56.20;;;;;;5029635;28;20200;-43
2022/07/21 12:59:14;;;;;;;1.83;1.60;;;12.10;56.20;;;;;;5029566;28;20196;-44
2022/07/21 13:01:45;;;;;;;1.60;1.42;;;12.10;56.20;;;;;;5029834;28;20265;-45
2022/07/21 13:04:18;;;;;;;1.73;1.50;;;12.10;56.20;;;;;;5029494;28;20567;-44
2022/07/21 13:06:50;;;;;;;1.60;1.50;;;12.10;56.20;;;;;;5029701;28;20239;-50
2022/07/21 13:09:20;;;;;;;1.73;1.38;;;12.00;56.20;;;;;;5029459;28;20216;-43
2022/07/21 13:11:51;;;;;;;1.25;1.15;;;12.00;56.20;;;;;;5029844;28;20227;-48
2022/07/21 13:14:22;;;;;;;1.83;1.40;;;12.10;56.30;;;;;;5029705;28;20435;-46